Time;durP1;ratioP1;P1;durP2;ratioP2;P2;SDS_P1;SDS_P2;PMS_P1;PMS_P2;Temp;Humidity;BMP_temperature;BMP_pressure;BME280_temperature;BME280_humidity;BME280_pressure;Samples;Min_cycle;Max_cycle;Signal;HPM_P1;HPM_P2
2021/03/08 00:02:19;;;;;;;2.83;2.37;;;1.10;99.90;;;;;;4996390;28;20190;-69
2021/03/08 00:04:44;;;;;;;7.00;3.60;;;1.10;99.90;;;;;;4994666;28;20189;-69
2021/03/08 00:07:10;;;;;;;7.27;2.70;;;1.10;99.90;;;;;;4996694;28;20439;-69
2021/03/08 00:09:38;;;;;;;5.23;2.73;;;1.10;99.90;;;;;;4994047;28;20652;-69
2021/03/08 00:12:05;;;;;;;7.17;2.90;;;1.00;99.90;;;;;;4991461;28;20521;-69
2021/03/08 00:14:31;;;;;;;4.13;2.90;;;1.00;99.90;;;;;;4992600;28;20439;-69
2021/03/08 00:16:57;;;;;;;10.10;3.33;;;1.10;99.90;;;;;;4995434;28;20779;-69
2021/03/08 00:19:22;;;;;;;11.63;2.83;;;1.00;99.90;;;;;;4993490;28;20181;-69
2021/03/08 00:21:48;;;;;;;2.97;2.43;;;1.10;99.90;;;;;;4994294;28;20196;-69
2021/03/08 00:24:14;;;;;;;3.80;2.67;;;1.10;99.90;;;;;;4994814;28;20191;-69
2021/03/08 00:26:40;;;;;;;6.43;2.50;;;1.10;99.90;;;;;;4991927;28;20177;-69
2021/03/08 00:29:06;;;;;;;4.60;2.30;;;1.10;99.90;;;;;;4992269;28;20219;-69
2021/03/08 00:31:31;;;;;;;3.57;2.23;;;1.10;99.90;;;;;;4995435;28;20740;-69
2021/03/08 00:33:57;;;;;;;8.10;2.83;;;1.10;99.90;;;;;;4995040;28;20177;-69
2021/03/08 00:36:23;;;;;;;6.10;2.60;;;1.10;99.90;;;;;;4994513;28;20183;-69
2021/03/08 00:38:48;;;;;;;7.30;2.67;;;1.20;99.90;;;;;;4994286;28;20272;-69
2021/03/08 00:41:14;;;;;;;6.23;2.70;;;1.20;99.90;;;;;;4992047;28;20187;-69
2021/03/08 00:43:39;;;;;;;2.90;2.70;;;1.10;99.90;;;;;;4989502;28;20267;-69
2021/03/08 00:46:05;;;;;;;8.07;3.17;;;1.10;99.90;;;;;;4991667;28;20339;-69
2021/03/08 00:48:31;;;;;;;7.83;3.47;;;1.10;99.90;;;;;;4992146;28;20217;-69
2021/03/08 00:50:56;;;;;;;5.60;3.00;;;1.00;99.90;;;;;;4991569;28;20262;-69
2021/03/08 00:53:22;;;;;;;8.83;3.30;;;1.00;99.90;;;;;;4994725;28;20219;-69
2021/03/08 00:55:48;;;;;;;8.10;2.40;;;1.00;99.90;;;;;;4994063;28;20177;-69
2021/03/08 00:58:13;;;;;;;5.57;2.80;;;1.00;99.90;;;;;;4989629;28;20200;-69
2021/03/08 01:00:39;;;;;;;6.43;2.90;;;1.00;99.90;;;;;;4992093;28;20203;-69
2021/03/08 01:03:05;;;;;;;11.50;2.53;;;1.00;99.90;;;;;;4990512;28;20221;-69
2021/03/08 01:05:30;;;;;;;9.73;3.00;;;1.00;99.90;;;;;;4992746;28;20179;-69
2021/03/08 01:07:56;;;;;;;5.83;2.40;;;0.90;99.90;;;;;;4993283;28;20199;-69
2021/03/08 01:10:27;;;;;;;3.43;2.20;;;0.90;99.90;;;;;;4992074;28;20175;-69
2021/03/08 01:12:53;;;;;;;7.40;3.00;;;0.90;99.90;;;;;;4992472;28;20203;-69
2021/03/08 01:15:19;;;;;;;7.13;2.50;;;0.80;99.90;;;;;;4991917;28;20438;-69
2021/03/08 01:17:44;;;;;;;10.07;2.43;;;0.80;99.90;;;;;;4993599;28;20456;-69
2021/03/08 01:20:15;;;;;;;3.53;2.40;;;0.70;99.90;;;;;;4994379;28;20903;-69
2021/03/08 01:22:41;;;;;;;10.07;3.03;;;0.60;99.90;;;;;;4995706;28;20206;-69
2021/03/08 01:25:17;;;;;;;9.67;2.77;;;0.60;99.90;;;;;;4996022;28;20788;-69
2021/03/08 01:27:42;;;;;;;6.83;2.50;;;0.60;99.90;;;;;;4995047;28;20812;-69
2021/03/08 01:30:16;;;;;;;2.57;2.13;;;0.50;99.90;;;;;;4993101;28;20509;-69
2021/03/08 01:32:41;;;;;;;3.17;2.50;;;0.40;99.90;;;;;;4989919;28;20190;-69
2021/03/08 01:35:08;;;;;;;5.00;2.60;;;0.40;99.90;;;;;;4994725;28;20779;-69
2021/03/08 01:37:34;;;;;;;4.70;2.73;;;0.40;99.90;;;;;;4995792;28;20592;-69
2021/03/08 01:40:01;;;;;;;3.93;2.97;;;0.40;99.90;;;;;;4991615;28;20470;-69
2021/03/08 01:42:27;;;;;;;4.07;2.80;;;0.30;99.90;;;;;;4993364;28;20443;-69
2021/03/08 01:44:53;;;;;;;4.90;2.13;;;0.20;99.90;;;;;;4992069;28;20444;-69
2021/03/08 01:47:19;;;;;;;5.50;2.50;;;0.10;99.90;;;;;;4989583;28;20470;-69
2021/03/08 01:49:46;;;;;;;10.73;2.90;;;0.10;99.90;;;;;;4991253;28;20513;-69
2021/03/08 01:52:11;;;;;;;14.03;2.67;;;0.00;99.90;;;;;;4991061;28;20589;-69
2021/03/08 01:54:37;;;;;;;8.50;2.10;;;0.00;99.90;;;;;;4993861;28;20528;-69
2021/03/08 01:57:04;;;;;;;2.67;2.33;;;0.00;99.90;;;;;;4996151;28;20430;-69
2021/03/08 01:59:30;;;;;;;4.10;2.33;;;0.10;99.90;;;;;;4995243;28;20442;-69
2021/03/08 02:01:58;;;;;;;4.10;3.00;;;0.00;99.90;;;;;;4997955;28;20499;-69
2021/03/08 02:04:24;;;;;;;2.90;2.47;;;0.00;99.90;;;;;;4994936;28;20487;-69
2021/03/08 02:06:50;;;;;;;4.40;2.33;;;0.00;99.90;;;;;;4994295;28;20537;-69
2021/03/08 02:09:16;;;;;;;5.60;3.30;;;0.00;99.90;;;;;;4996753;28;20206;-69
2021/03/08 02:11:49;;;;;;;8.50;2.23;;;0.00;99.90;;;;;;4992229;28;20170;-69
2021/03/08 02:14:31;;;;;;;4.17;2.30;;;0.00;99.90;;;;;;4993955;28;20457;-69
2021/03/08 02:17:21;;;;;;;11.00;3.00;;;0.00;99.90;;;;;;4992903;28;21982;-69
2021/03/08 02:20:23;;;;;;;2.33;2.13;;;0.00;99.90;;;;;;4992258;28;20430;-69
2021/03/08 02:23:10;;;;;;;3.47;1.70;;;0.00;99.90;;;;;;4992096;28;20529;-69
2021/03/08 02:25:47;;;;;;;2.97;2.70;;;-0.10;99.90;;;;;;4991573;28;20434;-69
2021/03/08 02:28:40;;;;;;;2.67;2.37;;;-0.10;99.90;;;;;;4995769;28;21015;-69
2021/03/08 02:31:10;;;;;;;3.17;1.60;;;-0.10;99.90;;;;;;4992588;28;20454;-69
2021/03/08 02:33:37;;;;;;;5.20;2.17;;;-0.10;99.90;;;;;;4994250;28;20529;-68
2021/03/08 02:36:06;;;;;;;5.83;2.43;;;-0.10;99.90;;;;;;4995173;28;20446;-69
2021/03/08 02:38:46;;;;;;;3.00;2.37;;;-0.10;99.90;;;;;;4990652;28;20449;-69
2021/03/08 02:41:15;;;;;;;8.00;2.90;;;-0.20;99.90;;;;;;4988075;28;20441;-69
2021/03/08 02:43:43;;;;;;;4.27;2.40;;;-0.20;99.90;;;;;;4995515;28;20756;-69
2021/03/08 02:46:22;;;;;;;6.67;1.90;;;-0.30;99.90;;;;;;4996303;28;20433;-69
2021/03/08 02:48:50;;;;;;;3.47;1.80;;;-0.30;99.90;;;;;;4993315;28;20480;-69
2021/03/08 02:51:17;;;;;;;3.10;2.03;;;-0.30;99.90;;;;;;4989664;28;20509;-68
2021/03/08 02:53:46;;;;;;;2.70;2.00;;;-0.40;99.90;;;;;;4993632;28;20530;-69
2021/03/08 02:56:17;;;;;;;2.40;1.80;;;-0.40;99.90;;;;;;4994038;28;20421;-69
2021/03/08 02:58:45;;;;;;;5.10;2.03;;;-0.50;99.90;;;;;;4994335;28;20458;-69
2021/03/08 03:01:13;;;;;;;3.27;1.70;;;-0.50;99.90;;;;;;4989906;28;20452;-69
2021/03/08 03:03:44;;;;;;;6.00;2.13;;;-0.60;99.90;;;;;;4992424;28;20994;-69
2021/03/08 03:06:10;;;;;;;6.67;1.97;;;-0.60;99.90;;;;;;4993981;28;20434;-69
2021/03/08 03:08:38;;;;;;;3.33;2.10;;;-0.60;99.90;;;;;;4993833;28;20454;-69
2021/03/08 03:11:05;;;;;;;2.37;1.90;;;-0.70;99.90;;;;;;4991522;28;20777;-69
2021/03/08 03:13:31;;;;;;;7.80;1.73;;;-0.80;99.90;;;;;;4994401;28;20437;-69
2021/03/08 03:15:58;;;;;;;1.63;1.53;;;-0.80;99.90;;;;;;4993125;28;20435;-69
2021/03/08 03:18:26;;;;;;;4.57;1.80;;;-0.80;99.90;;;;;;4992903;28;20841;-69
2021/03/08 03:20:55;;;;;;;2.07;1.87;;;-0.80;99.90;;;;;;4989961;28;20520;-69
2021/03/08 03:23:22;;;;;;;6.70;1.90;;;-0.90;99.90;;;;;;4995589;28;20783;-69
2021/03/08 03:25:49;;;;;;;8.90;2.10;;;-0.90;99.90;;;;;;4996571;28;20430;-69
2021/03/08 03:28:17;;;;;;;2.70;1.90;;;-0.90;99.90;;;;;;4992541;28;20616;-69
2021/03/08 03:30:44;;;;;;;4.00;2.03;;;-0.90;99.90;;;;;;4993819;28;20465;-69
2021/03/08 03:33:12;;;;;;;2.13;1.90;;;-1.00;99.90;;;;;;4996239;28;20887;-69
2021/03/08 03:35:38;;;;;;;4.60;2.03;;;-1.00;99.90;;;;;;4996474;28;20437;-69
2021/03/08 03:38:05;;;;;;;5.83;1.60;;;-1.00;99.90;;;;;;4994419;28;20451;-69
2021/03/08 03:40:31;;;;;;;2.27;1.53;;;-1.00;99.90;;;;;;4995393;28;20448;-69
2021/03/08 03:42:57;;;;;;;2.93;2.10;;;-0.90;99.90;;;;;;4993493;28;20916;-69
2021/03/08 03:45:23;;;;;;;3.90;2.30;;;-0.80;99.90;;;;;;4994399;28;20445;-69
2021/03/08 03:47:50;;;;;;;2.60;1.63;;;-0.80;99.90;;;;;;4995246;28;20757;-69
2021/03/08 03:50:20;;;;;;;1.40;1.03;;;-0.90;99.90;;;;;;4991796;28;20454;-69
2021/03/08 03:52:46;;;;;;;4.30;1.57;;;-1.00;99.90;;;;;;4989283;28;20450;-69
2021/03/08 03:55:17;;;;;;;4.30;1.87;;;-1.00;99.90;;;;;;4995923;28;20453;-69
2021/03/08 03:57:53;;;;;;;4.57;1.70;;;-1.10;99.90;;;;;;4992646;28;20730;-69
2021/03/08 04:00:23;;;;;;;2.83;1.93;;;-1.20;99.90;;;;;;4994285;28;20440;-69
2021/03/08 04:03:05;;;;;;;3.43;1.63;;;-1.20;99.90;;;;;;4995073;28;20819;-69
2021/03/08 04:05:31;;;;;;;1.73;1.63;;;-1.30;99.90;;;;;;4992826;28;20492;-69
2021/03/08 04:07:57;;;;;;;2.13;1.53;;;-1.30;99.90;;;;;;4992494;28;20493;-69
2021/03/08 04:10:25;;;;;;;2.97;2.20;;;-1.40;99.90;;;;;;4991816;28;20436;-69
2021/03/08 04:12:59;;;;;;;11.13;1.50;;;-1.40;99.90;;;;;;4989439;28;23140;-69
2021/03/08 04:15:27;;;;;;;2.40;1.77;;;-1.40;99.90;;;;;;4994030;28;20507;-69
2021/03/08 04:17:53;;;;;;;1.87;1.77;;;-1.50;99.90;;;;;;4993175;28;20592;-69
2021/03/08 04:20:21;;;;;;;6.00;2.50;;;-1.60;99.90;;;;;;4991082;28;20435;-69
2021/03/08 04:22:55;;;;;;;4.10;2.53;;;-1.60;99.90;;;;;;4990800;28;20468;-69
2021/03/08 04:25:21;;;;;;;6.43;2.37;;;-1.70;99.90;;;;;;4989276;28;20499;-69
2021/03/08 04:27:51;;;;;;;5.53;2.47;;;-1.80;99.90;;;;;;4990319;28;20772;-69
2021/03/08 04:30:18;;;;;;;4.13;1.73;;;-1.80;99.90;;;;;;4989870;28;20900;-69
2021/03/08 04:32:49;;;;;;;3.30;1.67;;;-1.80;99.90;;;;;;4993116;28;20526;-69
2021/03/08 04:35:17;;;;;;;3.70;1.70;;;-1.80;99.90;;;;;;4992811;28;20525;-69
2021/03/08 04:37:44;;;;;;;3.67;1.90;;;-1.80;99.90;;;;;;4989539;28;20510;-69
2021/03/08 04:40:13;;;;;;;3.90;1.93;;;-1.80;99.90;;;;;;4989128;28;20511;-69
2021/03/08 04:42:40;;;;;;;4.17;2.40;;;-1.80;99.90;;;;;;4990139;28;20545;-69
2021/03/08 04:45:07;;;;;;;8.67;2.67;;;-1.80;99.90;;;;;;4992051;28;20435;-69
2021/03/08 04:47:34;;;;;;;2.10;1.90;;;-1.80;99.90;;;;;;4989903;28;20523;-69
2021/03/08 04:50:01;;;;;;;5.83;1.77;;;-1.80;99.90;;;;;;4987924;28;20981;-68
2021/03/08 04:52:27;;;;;;;4.87;1.93;;;-1.90;99.90;;;;;;4993326;28;20449;-68
2021/03/08 04:54:54;;;;;;;2.90;1.53;;;-1.90;99.90;;;;;;4988915;28;20445;-68
2021/03/08 04:57:21;;;;;;;6.23;2.37;;;-1.90;99.90;;;;;;4992999;28;20437;-68
2021/03/08 04:59:49;;;;;;;6.50;2.40;;;-1.90;99.90;;;;;;4986908;28;20889;-68
2021/03/08 05:02:17;;;;;;;3.00;1.73;;;-1.90;99.90;;;;;;4993046;28;20417;-69
2021/03/08 05:04:47;;;;;;;2.70;1.93;;;-1.90;99.90;;;;;;4992536;28;20443;-69
2021/03/08 05:07:16;;;;;;;4.10;2.37;;;-1.90;99.90;;;;;;4993240;28;20468;-69
2021/03/08 05:09:42;;;;;;;3.50;2.53;;;-1.90;99.90;;;;;;4990370;28;20475;-68
2021/03/08 05:12:11;;;;;;;3.07;1.90;;;-2.00;99.90;;;;;;4989318;28;20533;-68
2021/03/08 05:14:38;;;;;;;2.87;1.97;;;-2.10;99.90;;;;;;4992025;28;20445;-69
2021/03/08 05:17:06;;;;;;;2.03;1.90;;;-2.20;99.90;;;;;;4988666;28;20443;-69
2021/03/08 05:19:34;;;;;;;2.73;2.10;;;-2.30;99.90;;;;;;4989366;28;20437;-69
2021/03/08 05:22:00;;;;;;;5.17;2.60;;;-2.30;99.90;;;;;;4990742;28;20550;-68
2021/03/08 05:24:27;;;;;;;2.30;2.10;;;-2.30;99.90;;;;;;4992287;28;20521;-69
2021/03/08 05:26:53;;;;;;;3.30;2.57;;;-2.30;99.90;;;;;;4990140;28;20437;-69
2021/03/08 05:29:20;;;;;;;5.97;3.47;;;-2.30;99.90;;;;;;4992170;28;20469;-69
2021/03/08 05:31:47;;;;;;;5.70;2.70;;;-2.30;99.90;;;;;;4993020;28;20422;-68
2021/03/08 05:34:16;;;;;;;10.57;3.63;;;-2.30;99.90;;;;;;4996403;28;20910;-69
2021/03/08 05:36:44;;;;;;;8.47;3.77;;;-2.40;99.90;;;;;;4995946;28;20530;-69
2021/03/08 05:39:12;;;;;;;13.40;4.00;;;-2.40;99.90;;;;;;4996662;28;20455;-69
2021/03/08 05:42:12;;;;;;;7.20;4.37;;;-2.40;99.90;;;;;;4990581;28;20470;-69
2021/03/08 05:45:02;;;;;;;5.00;3.90;;;-2.40;99.90;;;;;;4994497;28;20959;-68
2021/03/08 05:48:06;;;;;;;3.77;2.70;;;-2.40;99.90;;;;;;4986325;28;20450;-68
2021/03/08 05:51:09;;;;;;;8.00;3.43;;;-2.40;99.90;;;;;;4989097;28;20771;-68
2021/03/08 05:53:46;;;;;;;9.33;3.60;;;-2.30;99.90;;;;;;4992129;28;20429;-69
2021/03/08 05:56:37;;;;;;;3.53;2.47;;;-2.40;99.90;;;;;;4991857;28;21210;-68
2021/03/08 05:59:12;;;;;;;6.13;2.70;;;-2.50;99.90;;;;;;4992832;28;20459;-69
2021/03/08 06:01:41;;;;;;;7.50;2.70;;;-2.50;99.90;;;;;;4984974;28;20762;-68
2021/03/08 06:04:44;;;;;;;3.47;3.07;;;-2.50;99.90;;;;;;4987134;28;20442;-68
2021/03/08 06:07:19;;;;;;;5.30;2.80;;;-2.40;99.90;;;;;;4923724;29;20497;-68
2021/03/08 06:10:04;;;;;;;3.43;2.30;;;-2.50;99.90;;;;;;4981948;28;20575;-68
2021/03/08 06:12:35;;;;;;;6.10;2.30;;;-2.50;99.90;;;;;;4995157;28;20426;-68
2021/03/08 06:15:06;;;;;;;3.80;2.60;;;-2.50;99.90;;;;;;4993081;28;20879;-69
2021/03/08 06:17:33;;;;;;;3.50;2.73;;;-2.50;99.90;;;;;;4985387;28;20445;-68
2021/03/08 06:20:00;;;;;;;4.20;2.60;;;-2.40;99.90;;;;;;4980895;28;20476;-69
2021/03/08 06:22:27;;;;;;;3.00;2.30;;;-2.40;99.90;;;;;;4990473;28;20428;-68
2021/03/08 06:24:55;;;;;;;4.53;2.70;;;-2.50;99.90;;;;;;4984628;28;20494;-69
2021/03/08 06:27:23;;;;;;;5.70;2.70;;;-2.40;99.90;;;;;;4987816;28;20459;-68
2021/03/08 06:29:51;;;;;;;4.20;2.57;;;-2.40;99.90;;;;;;4986948;28;20521;-68
2021/03/08 06:32:17;;;;;;;4.03;2.93;;;-2.40;99.90;;;;;;4987005;28;20499;-68
2021/03/08 06:34:43;;;;;;;5.47;3.43;;;-2.30;99.90;;;;;;4988715;28;20434;-68
2021/03/08 06:37:10;;;;;;;4.60;4.00;;;-2.40;99.90;;;;;;4991960;28;20449;-68
2021/03/08 06:39:41;;;;;;;3.30;2.67;;;-2.50;99.90;;;;;;4995030;28;20203;-68
2021/03/08 06:42:07;;;;;;;8.23;3.10;;;-2.50;99.90;;;;;;4996837;28;20763;-68
2021/03/08 06:44:34;;;;;;;3.03;2.47;;;-2.50;99.90;;;;;;4994822;28;20515;-68
2021/03/08 06:47:00;;;;;;;10.03;3.53;;;-2.50;99.90;;;;;;4994596;28;20444;-68
2021/03/08 06:49:26;;;;;;;2.90;2.70;;;-2.40;99.90;;;;;;4990610;28;20519;-68
2021/03/08 06:52:07;;;;;;;3.30;2.63;;;-2.40;99.90;;;;;;4993565;28;20936;-68
2021/03/08 06:54:34;;;;;;;5.40;2.70;;;-2.40;99.90;;;;;;4995841;28;20194;-68
2021/03/08 06:57:00;;;;;;;3.23;2.33;;;-2.30;99.90;;;;;;4994278;28;20757;-68
2021/03/08 06:59:26;;;;;;;3.10;2.47;;;-2.30;99.90;;;;;;4989906;28;20445;-68
2021/03/08 07:01:53;;;;;;;4.13;2.30;;;-2.20;99.90;;;;;;4992970;28;20183;-68
2021/03/08 07:04:22;;;;;;;3.90;2.37;;;-2.20;99.90;;;;;;4994012;28;20433;-68
2021/03/08 07:07:07;;;;;;;4.53;2.03;;;-2.10;99.90;;;;;;4987478;28;20768;-68
2021/03/08 07:09:34;;;;;;;4.30;1.80;;;-2.10;99.90;;;;;;4988942;28;20450;-68
2021/03/08 07:12:10;;;;;;;3.00;2.70;;;-2.00;99.90;;;;;;4993187;28;20477;-69
2021/03/08 07:14:37;;;;;;;4.40;2.47;;;-2.00;99.90;;;;;;4991935;28;20499;-68
2021/03/08 07:17:32;;;;;;;4.43;2.33;;;-1.90;99.90;;;;;;4994371;28;20442;-68
2021/03/08 07:20:04;;;;;;;3.50;2.50;;;-1.80;99.90;;;;;;4993970;28;20512;-68
2021/03/08 07:22:47;;;;;;;4.87;3.20;;;-1.80;99.90;;;;;;4990694;28;20444;-68
2021/03/08 07:25:30;;;;;;;4.73;2.60;;;-1.70;99.90;;;;;;4989041;28;21010;-68
2021/03/08 07:28:04;;;;;;;2.67;2.47;;;-1.70;99.90;;;;;;4987019;28;20957;-68
2021/03/08 07:30:38;;;;;;;5.63;2.23;;;-1.60;99.90;;;;;;4991086;28;20917;-68
2021/03/08 07:33:05;;;;;;;2.63;2.43;;;-1.60;99.90;;;;;;4990375;28;20529;-68
2021/03/08 07:35:39;;;;;;;2.40;2.20;;;-1.60;99.90;;;;;;4984988;28;20436;-68
2021/03/08 07:38:06;;;;;;;4.40;2.57;;;-1.50;99.90;;;;;;4989298;28;20479;-68
2021/03/08 07:40:33;;;;;;;2.07;1.97;;;-1.50;99.90;;;;;;4990191;28;20437;-68
2021/03/08 07:43:00;;;;;;;4.43;2.50;;;-1.40;99.90;;;;;;4987655;28;20434;-68
2021/03/08 07:45:40;;;;;;;9.90;3.07;;;-1.40;99.90;;;;;;4990229;28;20435;-68
2021/03/08 07:48:19;;;;;;;2.17;1.97;;;-1.20;99.90;;;;;;4990424;28;20470;-68
2021/03/08 07:50:47;;;;;;;3.40;2.50;;;-1.20;99.90;;;;;;4992071;28;20505;-69
2021/03/08 07:53:24;;;;;;;3.70;2.47;;;-1.00;99.90;;;;;;4991480;28;20427;-69
2021/03/08 07:55:52;;;;;;;5.63;2.30;;;-1.00;99.90;;;;;;4990396;28;20488;-69
2021/03/08 07:58:18;;;;;;;2.03;1.93;;;-0.90;99.90;;;;;;4988234;28;20435;-68
2021/03/08 08:00:44;;;;;;;2.00;1.63;;;-0.80;99.90;;;;;;4989040;28;20443;-68
2021/03/08 08:03:10;;;;;;;2.00;1.90;;;-0.70;99.90;;;;;;4985688;28;20535;-68
2021/03/08 08:05:35;;;;;;;4.67;2.23;;;-0.70;99.90;;;;;;4985700;28;20197;-70
2021/03/08 08:08:02;;;;;;;3.03;1.87;;;-0.60;99.90;;;;;;4989476;28;20466;-68
2021/03/08 08:10:28;;;;;;;7.90;2.13;;;-0.40;99.90;;;;;;4992191;28;20174;-69
2021/03/08 08:13:01;;;;;;;4.83;2.10;;;-0.30;99.90;;;;;;4987005;28;20534;-69
2021/03/08 08:15:27;;;;;;;2.53;2.33;;;-0.20;99.90;;;;;;4991512;28;20425;-69
2021/03/08 08:17:55;;;;;;;6.03;1.83;;;-0.20;99.90;;;;;;4992802;28;20907;-69
2021/03/08 08:20:21;;;;;;;1.80;1.70;;;0.00;99.90;;;;;;4993250;28;20763;-69
2021/03/08 08:22:57;;;;;;;5.20;1.73;;;0.10;99.90;;;;;;4991030;28;20845;-69
2021/03/08 08:25:25;;;;;;;2.23;2.00;;;0.20;99.90;;;;;;4984149;28;20429;-69
2021/03/08 08:27:51;;;;;;;2.43;2.00;;;0.20;99.90;;;;;;4988275;28;20434;-69
2021/03/08 08:30:17;;;;;;;2.30;1.53;;;0.30;99.90;;;;;;4990297;28;20997;-69
2021/03/08 08:32:57;;;;;;;2.30;1.70;;;0.30;99.90;;;;;;4991506;28;20481;-69
2021/03/08 08:35:31;;;;;;;1.80;1.70;;;0.50;99.90;;;;;;4986610;28;20482;-69
2021/03/08 08:38:14;;;;;;;3.20;1.73;;;0.50;99.90;;;;;;4991207;28;20514;-69
2021/03/08 08:40:42;;;;;;;3.60;1.60;;;0.70;99.90;;;;;;4991155;28;20437;-69
2021/03/08 08:43:28;;;;;;;4.50;1.93;;;0.80;99.90;;;;;;4989715;28;20453;-69
2021/03/08 08:45:54;;;;;;;2.77;1.87;;;0.90;99.90;;;;;;4991545;28;20434;-69
2021/03/08 08:48:21;;;;;;;3.67;2.13;;;0.90;99.90;;;;;;4989558;28;20524;-69
2021/03/08 08:50:51;;;;;;;2.30;1.60;;;1.00;99.90;;;;;;4990539;28;20438;-69
2021/03/08 08:53:35;;;;;;;1.50;1.33;;;1.20;99.90;;;;;;4988662;28;20444;-69
2021/03/08 08:56:01;;;;;;;2.17;1.80;;;1.20;99.90;;;;;;4988239;28;20455;-69
2021/03/08 08:58:29;;;;;;;4.57;2.27;;;1.30;99.90;;;;;;4989134;28;20450;-69
2021/03/08 09:01:12;;;;;;;1.57;1.57;;;1.30;99.90;;;;;;4987812;28;20436;-69
2021/03/08 09:03:58;;;;;;;1.40;1.30;;;1.40;99.90;;;;;;4990894;28;20871;-69
2021/03/08 09:06:46;;;;;;;3.03;2.03;;;1.50;99.90;;;;;;4990764;28;20536;-69
2021/03/08 09:09:15;;;;;;;6.60;1.47;;;1.60;99.90;;;;;;4987945;28;20461;-69
2021/03/08 09:11:56;;;;;;;1.33;1.20;;;1.60;99.90;;;;;;4990957;28;20935;-69
2021/03/08 09:14:27;;;;;;;3.47;1.87;;;1.70;99.90;;;;;;4993107;28;20434;-69
2021/03/08 09:17:11;;;;;;;6.63;1.57;;;1.80;99.90;;;;;;4992514;28;20437;-69
2021/03/08 09:19:37;;;;;;;2.80;1.70;;;1.80;99.90;;;;;;4992599;28;20438;-69
2021/03/08 09:22:22;;;;;;;2.70;1.50;;;1.90;99.90;;;;;;4992077;28;20440;-69
2021/03/08 09:24:51;;;;;;;2.57;1.27;;;2.00;99.90;;;;;;4992289;28;20454;-69
2021/03/08 09:27:30;;;;;;;1.43;1.33;;;2.10;99.90;;;;;;4986837;28;20853;-69
2021/03/08 09:30:21;;;;;;;5.67;1.77;;;2.20;99.90;;;;;;4990875;28;20787;-69
2021/03/08 09:32:55;;;;;;;4.50;1.87;;;2.30;99.90;;;;;;4992080;28;20517;-69
2021/03/08 09:35:23;;;;;;;1.57;1.47;;;2.40;99.90;;;;;;4992290;28;20938;-69
2021/03/08 09:37:55;;;;;;;2.10;1.23;;;2.50;99.90;;;;;;4993049;28;20873;-69
2021/03/08 09:40:26;;;;;;;1.50;1.40;;;2.60;99.90;;;;;;4992667;28;20496;-69
2021/03/08 09:42:52;;;;;;;1.83;1.60;;;2.70;99.90;;;;;;4989060;28;20540;-69
2021/03/08 09:45:36;;;;;;;1.50;1.40;;;2.80;99.90;;;;;;4990703;28;20432;-69
2021/03/08 09:48:04;;;;;;;1.63;1.53;;;2.90;99.90;;;;;;4992641;28;20438;-69
2021/03/08 09:50:35;;;;;;;1.50;1.40;;;3.00;99.90;;;;;;4992293;28;20425;-69
2021/03/08 09:53:01;;;;;;;3.43;1.20;;;3.10;99.90;;;;;;4991201;28;20442;-69
2021/03/08 09:55:35;;;;;;;1.87;1.77;;;3.30;99.90;;;;;;4992684;28;20439;-69
2021/03/08 09:58:21;;;;;;;2.50;1.27;;;3.40;99.90;;;;;;4994466;28;20430;-69
2021/03/08 10:00:52;;;;;;;1.57;1.47;;;3.50;99.90;;;;;;4994430;28;20849;-69
2021/03/08 10:03:17;;;;;;;1.20;1.10;;;3.60;99.90;;;;;;4992509;28;20533;-69
2021/03/08 10:05:51;;;;;;;6.83;1.30;;;3.70;99.90;;;;;;4995446;28;20667;-69
2021/03/08 10:08:18;;;;;;;1.90;1.47;;;3.80;99.90;;;;;;4996500;28;20559;-69
2021/03/08 10:10:48;;;;;;;1.87;1.43;;;3.90;99.90;;;;;;4997245;28;20424;-69
2021/03/08 10:13:16;;;;;;;2.93;1.30;;;4.10;99.90;;;;;;4995403;28;20426;-70
2021/03/08 10:15:49;;;;;;;2.30;1.33;;;4.20;99.90;;;;;;4999402;28;20443;-69
2021/03/08 10:18:18;;;;;;;1.50;1.40;;;4.40;99.90;;;;;;4997443;28;20515;-69
2021/03/08 10:20:52;;;;;;;4.30;1.50;;;4.40;99.90;;;;;;5001993;28;20426;-69
2021/03/08 10:23:27;;;;;;;1.53;1.37;;;4.60;99.90;;;;;;4997250;28;20915;-69
2021/03/08 10:26:03;;;;;;;1.60;1.50;;;4.60;99.90;;;;;;4997217;28;20539;-70
2021/03/08 10:28:46;;;;;;;3.50;1.70;;;4.60;99.90;;;;;;4994406;28;20459;-70
2021/03/08 10:31:26;;;;;;;3.80;1.60;;;4.70;99.90;;;;;;4994850;28;20487;-70
2021/03/08 10:33:55;;;;;;;1.47;1.37;;;4.80;99.90;;;;;;4996912;28;20434;-70
2021/03/08 10:36:36;;;;;;;1.60;1.50;;;4.90;99.90;;;;;;4998661;28;20465;-70
2021/03/08 10:39:13;;;;;;;2.10;1.40;;;5.10;99.90;;;;;;5001476;28;20813;-70
2021/03/08 10:41:41;;;;;;;3.27;1.50;;;5.00;99.90;;;;;;4999436;28;20442;-70
2021/03/08 10:44:08;;;;;;;1.93;1.43;;;5.10;99.90;;;;;;4999014;28;20439;-70
2021/03/08 10:46:37;;;;;;;4.93;1.43;;;5.30;99.90;;;;;;4998126;28;20442;-70
2021/03/08 10:49:09;;;;;;;6.63;2.03;;;5.40;99.90;;;;;;5002361;28;20811;-70
2021/03/08 10:51:39;;;;;;;2.83;1.40;;;5.50;99.90;;;;;;5000429;28;20438;-71
2021/03/08 10:54:05;;;;;;;2.10;2.00;;;5.70;99.90;;;;;;5004397;28;20426;-70
2021/03/08 10:56:33;;;;;;;3.03;1.30;;;5.80;99.90;;;;;;5005358;28;20449;-70
2021/03/08 10:58:59;;;;;;;3.80;1.20;;;6.00;99.90;;;;;;5004458;28;20433;-70
2021/03/08 11:01:27;;;;;;;0.93;0.93;;;6.00;99.90;;;;;;5001844;28;20433;-73
2021/03/08 11:03:52;;;;;;;1.37;1.20;;;6.10;99.90;;;;;;4999247;28;20418;-75
2021/03/08 11:06:21;;;;;;;1.20;1.10;;;6.20;99.90;;;;;;5000861;28;20513;-73
2021/03/08 11:09:02;;;;;;;1.30;1.07;;;6.20;99.90;;;;;;4999116;28;20210;-70
2021/03/08 11:11:33;;;;;;;3.03;0.70;;;6.40;99.90;;;;;;5001545;28;20431;-70
2021/03/08 11:14:06;;;;;;;0.63;0.63;;;6.40;99.90;;;;;;5004466;28;20423;-70
2021/03/08 11:16:33;;;;;;;0.93;0.87;;;6.40;90.20;;;;;;5002228;28;20427;-70
2021/03/08 11:19:18;;;;;;;1.00;0.90;;;6.40;93.50;;;;;;5002930;28;20496;-69
2021/03/08 11:21:44;;;;;;;1.40;1.00;;;6.40;95.50;;;;;;5000851;28;20445;-69
2021/03/08 11:24:14;;;;;;;1.17;1.07;;;6.50;98.40;;;;;;5000254;28;20438;-69
2021/03/08 11:26:40;;;;;;;3.93;1.30;;;6.50;99.90;;;;;;4999858;28;20497;-69
2021/03/08 11:29:20;;;;;;;1.50;1.40;;;6.60;99.90;;;;;;4997488;28;20977;-69
2021/03/08 11:31:53;;;;;;;0.90;0.90;;;6.80;99.90;;;;;;5001616;28;20194;-69
2021/03/08 11:34:39;;;;;;;1.03;1.00;;;6.80;99.90;;;;;;4997927;28;20444;-69
2021/03/08 11:37:13;;;;;;;2.37;1.10;;;6.80;99.90;;;;;;5000043;28;20887;-69
2021/03/08 11:39:51;;;;;;;2.30;1.00;;;7.00;99.90;;;;;;5001590;28;20410;-69
2021/03/08 11:42:18;;;;;;;0.97;0.97;;;7.20;99.90;;;;;;4997407;28;20434;-69
2021/03/08 11:44:45;;;;;;;1.27;0.90;;;7.30;99.90;;;;;;5003388;28;20442;-69
2021/03/08 11:47:11;;;;;;;1.80;1.20;;;7.40;99.90;;;;;;5002184;28;20426;-69
2021/03/08 11:49:37;;;;;;;1.10;1.10;;;7.50;99.90;;;;;;4999420;28;20546;-69
2021/03/08 11:52:03;;;;;;;0.70;0.70;;;7.70;99.90;;;;;;4999540;28;20195;-69
2021/03/08 11:54:29;;;;;;;1.53;1.10;;;7.80;99.90;;;;;;5000690;28;20485;-69
2021/03/08 11:56:55;;;;;;;2.00;0.97;;;8.00;99.90;;;;;;5000625;28;20527;-69
2021/03/08 11:59:21;;;;;;;0.90;0.90;;;8.10;99.70;;;;;;5003755;28;20427;-70
2021/03/08 12:01:46;;;;;;;2.07;0.97;;;8.00;97.10;;;;;;5007385;28;20190;-70
2021/03/08 12:04:12;;;;;;;1.43;0.73;;;8.00;97.20;;;;;;5006842;28;20179;-70
2021/03/08 12:06:38;;;;;;;1.10;0.90;;;8.00;95.60;;;;;;5003262;28;20194;-70
2021/03/08 12:09:04;;;;;;;1.50;1.13;;;8.10;97.10;;;;;;5004062;28;20694;-70
2021/03/08 12:11:30;;;;;;;1.27;1.17;;;8.20;97.50;;;;;;5000633;28;20203;-70
2021/03/08 12:13:55;;;;;;;1.57;0.70;;;8.30;96.50;;;;;;5001997;28;20464;-70
2021/03/08 12:16:21;;;;;;;1.17;1.00;;;8.40;95.00;;;;;;4999954;28;20204;-70
2021/03/08 12:18:48;;;;;;;1.60;1.00;;;8.30;95.00;;;;;;5000085;28;20210;-70
2021/03/08 12:21:14;;;;;;;0.83;0.67;;;8.30;91.00;;;;;;5001031;28;20190;-70
2021/03/08 12:23:40;;;;;;;1.23;0.97;;;8.20;89.70;;;;;;5000903;28;20482;-70
2021/03/08 12:26:06;;;;;;;1.93;1.20;;;8.20;88.40;;;;;;4998820;28;20445;-70
2021/03/08 12:28:32;;;;;;;1.43;0.93;;;8.30;93.00;;;;;;4998400;28;20446;-70
2021/03/08 12:30:58;;;;;;;1.90;1.20;;;8.20;90.20;;;;;;4998754;28;20175;-70
2021/03/08 12:33:24;;;;;;;0.90;0.90;;;8.10;91.50;;;;;;4999283;28;20446;-70
2021/03/08 12:35:50;;;;;;;1.17;0.93;;;8.10;90.10;;;;;;4999358;28;20442;-70
2021/03/08 12:38:16;;;;;;;1.33;1.00;;;8.20;95.50;;;;;;4999487;28;20187;-70
2021/03/08 12:40:41;;;;;;;1.03;1.03;;;8.10;95.50;;;;;;4995190;28;20195;-70
2021/03/08 12:43:07;;;;;;;1.67;1.10;;;8.30;95.80;;;;;;4995910;28;20187;-70
2021/03/08 12:45:34;;;;;;;0.80;0.80;;;8.40;93.10;;;;;;5000136;28;20190;-72
2021/03/08 12:48:00;;;;;;;1.10;1.10;;;8.10;93.10;;;;;;4995051;28;20460;-70
2021/03/08 12:50:25;;;;;;;2.10;1.10;;;8.10;92.00;;;;;;4989377;28;20430;-70
2021/03/08 12:52:51;;;;;;;1.23;0.90;;;8.10;96.20;;;;;;4994036;28;20426;-71
2021/03/08 12:55:17;;;;;;;1.37;0.80;;;8.30;94.70;;;;;;4994684;28;20632;-70
2021/03/08 12:57:42;;;;;;;1.37;1.10;;;8.60;94.60;;;;;;4990156;28;20174;-70
2021/03/08 13:00:10;;;;;;;0.73;0.73;;;8.80;90.80;;;;;;4993770;28;20197;-70
2021/03/08 13:02:35;;;;;;;0.97;0.97;;;8.90;92.10;;;;;;4994384;28;20197;-70
2021/03/08 13:05:01;;;;;;;0.90;0.90;;;9.10;92.30;;;;;;4990814;28;20442;-70
2021/03/08 13:07:27;;;;;;;1.03;0.93;;;9.20;93.20;;;;;;4995069;28;20183;-70
2021/03/08 13:09:53;;;;;;;0.80;0.80;;;9.30;91.40;;;;;;4994023;28;20523;-70